Time;durP1;ratioP1;P1;durP2;ratioP2;P2;SDS_P1;SDS_P2;PMS_P1;PMS_P2;Temp;Humidity;BMP_temperature;BMP_pressure;BME280_temperature;BME280_humidity;BME280_pressure;Samples;Min_cycle;Max_cycle;Signal;HPM_P1;HPM_P2
2023/07/04 00:01:11;;;;;;;12.80;3.55;;;13.70;99.90;;;;;;4822782;29;20066;-83
2023/07/04 00:03:39;;;;;;;10.32;3.42;;;13.20;99.90;;;;;;4823635;29;20057;-83
2023/07/04 00:06:12;;;;;;;15.40;4.28;;;13.20;99.90;;;;;;4822980;29;20103;-83
2023/07/04 00:08:38;;;;;;;12.43;4.10;;;13.20;99.90;;;;;;4823053;29;20424;-83
2023/07/04 00:11:06;;;;;;;17.95;4.35;;;13.20;99.90;;;;;;4823101;29;20050;-83
2023/07/04 00:13:33;;;;;;;10.63;3.70;;;13.20;99.90;;;;;;4822880;29;20054;-83
2023/07/04 00:15:59;;;;;;;11.80;4.10;;;13.20;99.90;;;;;;4821911;29;20062;-83
2023/07/04 00:18:27;;;;;;;12.23;3.83;;;13.20;99.90;;;;;;4823281;29;20078;-83
2023/07/04 00:20:55;;;;;;;14.18;4.03;;;13.40;99.90;;;;;;4822493;29;20081;-82
2023/07/04 00:23:25;;;;;;;12.13;4.30;;;13.20;99.90;;;;;;4823451;29;20050;-83
2023/07/04 00:25:55;;;;;;;12.32;4.18;;;13.20;99.90;;;;;;4822327;29;20056;-83
2023/07/04 00:28:21;;;;;;;13.23;4.65;;;13.20;99.90;;;;;;4824057;29;20141;-83
2023/07/04 00:30:48;;;;;;;16.08;4.07;;;13.20;99.90;;;;;;4823939;29;20187;-83
2023/07/04 00:33:16;;;;;;;13.38;4.30;;;13.20;99.90;;;;;;4823980;29;20046;-83
2023/07/04 00:35:45;;;;;;;14.80;4.65;;;13.60;99.90;;;;;;4823357;29;20058;-83
2023/07/04 00:38:12;;;;;;;15.65;4.28;;;13.10;99.90;;;;;;4822013;24;20151;-83
2023/07/04 00:40:38;;;;;;;13.65;4.13;;;13.20;99.90;;;;;;4805905;29;20099;-83
2023/07/04 00:43:04;;;;;;;14.13;4.38;;;13.10;99.90;;;;;;4805102;29;20047;-83
2023/07/04 00:45:35;;;;;;;12.65;3.90;;;13.90;99.90;;;;;;4806019;29;20460;-83
2023/07/04 00:48:03;;;;;;;13.48;4.40;;;13.10;99.90;;;;;;4805215;29;20125;-83
2023/07/04 00:50:43;;;;;;;11.07;4.20;;;13.20;99.90;;;;;;4803857;29;20059;-83
2023/07/04 00:53:12;;;;;;;16.75;4.47;;;13.90;99.90;;;;;;4804159;29;20039;-83
2023/07/04 00:55:41;;;;;;;11.82;4.40;;;13.10;99.90;;;;;;4804068;29;20059;-82
2023/07/04 00:58:16;;;;;;;15.13;4.43;;;13.20;99.90;;;;;;4805085;29;20446;-83
2023/07/04 01:00:44;;;;;;;11.73;3.83;;;13.10;99.90;;;;;;4805181;29;20046;-83
2023/07/04 01:03:13;;;;;;;12.25;4.10;;;13.10;99.90;;;;;;4804456;29;20054;-83
2023/07/04 01:05:41;;;;;;;16.73;4.55;;;13.10;99.90;;;;;;4805558;29;20050;-83
2023/07/04 01:08:14;;;;;;;14.38;4.20;;;13.60;99.90;;;;;;4803504;29;20061;-82
2023/07/04 01:10:44;;;;;;;13.25;3.95;;;13.50;99.90;;;;;;4805324;29;20183;-83
2023/07/04 01:13:36;;;;;;;16.02;4.30;;;13.00;99.90;;;;;;4803713;29;20534;-83
2023/07/04 01:16:09;;;;;;;14.18;4.28;;;13.00;99.90;;;;;;4804806;29;20047;-83
2023/07/04 01:18:37;;;;;;;11.93;4.40;;;13.40;99.90;;;;;;4804157;29;20092;-83
2023/07/04 01:21:05;;;;;;;12.98;4.75;;;13.60;99.90;;;;;;4803969;29;20055;-83
2023/07/04 01:24:11;;;;;;;13.95;4.35;;;13.90;99.90;;;;;;4803981;29;20053;-83
2023/07/04 01:26:45;;;;;;;16.77;4.68;;;12.90;99.90;;;;;;4817943;29;20050;-83
2023/07/04 01:29:13;;;;;;;12.88;4.00;;;13.60;99.90;;;;;;4823576;29;20042;-83
2023/07/04 01:31:43;;;;;;;13.00;4.30;;;12.90;99.90;;;;;;4809997;29;20055;-83
2023/07/04 01:34:20;;;;;;;16.80;4.55;;;13.80;99.90;;;;;;4807716;29;20054;-83
2023/07/04 01:36:47;;;;;;;14.57;3.95;;;12.80;99.90;;;;;;4805780;29;20440;-83
2023/07/04 01:39:16;;;;;;;16.90;4.43;;;12.90;99.90;;;;;;4798417;29;20550;-83
2023/07/04 01:41:54;;;;;;;15.43;4.40;;;12.80;99.90;;;;;;4804533;29;20477;-83
2023/07/04 01:44:57;;;;;;;13.40;3.78;;;13.40;99.90;;;;;;4807482;29;20082;-83
2023/07/04 01:47:22;;;;;;;12.07;4.30;;;12.70;99.90;;;;;;4807195;29;20211;-83
2023/07/04 01:49:48;;;;;;;13.85;4.32;;;13.60;99.90;;;;;;4806826;29;20561;-83
2023/07/04 01:52:15;;;;;;;13.68;4.05;;;12.90;99.90;;;;;;4807445;29;20047;-83
2023/07/04 01:54:40;;;;;;;15.43;4.50;;;13.50;99.90;;;;;;4806938;29;20095;-83
2023/07/04 01:57:10;;;;;;;15.25;4.85;;;13.30;99.90;;;;;;4808426;29;20401;-83
2023/07/04 01:59:36;;;;;;;14.82;5.22;;;12.60;99.90;;;;;;4807137;29;20058;-83
2023/07/04 02:02:02;;;;;;;13.13;4.50;;;12.50;99.90;;;;;;4808001;29;20051;-83
2023/07/04 02:04:28;;;;;;;13.55;4.35;;;12.50;99.90;;;;;;4808016;29;20055;-83
2023/07/04 02:06:53;;;;;;;14.07;4.60;;;12.70;99.90;;;;;;4807757;29;20049;-83
2023/07/04 02:09:19;;;;;;;14.73;4.50;;;12.50;99.90;;;;;;4807019;29;20083;-83
2023/07/04 02:12:00;;;;;;;14.52;4.55;;;12.60;99.90;;;;;;4808052;29;20046;-83
2023/07/04 02:14:26;;;;;;;12.63;4.40;;;12.40;99.90;;;;;;4806870;29;20061;-83
2023/07/04 02:17:04;;;;;;;12.10;4.13;;;12.40;99.90;;;;;;4808228;29;20046;-83
2023/07/04 02:19:29;;;;;;;14.77;4.57;;;12.40;99.90;;;;;;4808297;29;20103;-83
2023/07/04 02:21:55;;;;;;;11.52;4.50;;;12.40;99.90;;;;;;4806156;29;20050;-82
2023/07/04 02:24:21;;;;;;;12.15;4.47;;;12.40;99.90;;;;;;4808479;29;20050;-83
2023/07/04 02:26:47;;;;;;;15.80;4.90;;;12.40;99.90;;;;;;4807496;29;20466;-83
2023/07/04 02:29:12;;;;;;;15.20;4.95;;;12.40;99.90;;;;;;4808302;29;20134;-83
2023/07/04 02:32:24;;;;;;;15.18;4.53;;;12.40;99.90;;;;;;4806804;29;20050;-83
2023/07/04 02:34:53;;;;;;;15.75;4.40;;;12.30;99.90;;;;;;4807612;29;20074;-83
2023/07/04 02:37:19;;;;;;;17.88;4.80;;;12.60;99.90;;;;;;4804533;29;20054;-83
2023/07/04 02:39:45;;;;;;;15.32;5.00;;;12.30;99.90;;;;;;4806107;29;20055;-82
2023/07/04 02:42:10;;;;;;;14.52;4.45;;;12.50;99.90;;;;;;4806118;29;20046;-83
2023/07/04 02:44:39;;;;;;;14.52;4.57;;;12.30;99.90;;;;;;4808094;29;20047;-82
2023/07/04 02:47:18;;;;;;;17.23;4.70;;;12.30;99.90;;;;;;4807647;29;20411;-83
2023/07/04 02:49:44;;;;;;;13.38;4.47;;;12.30;99.90;;;;;;4806725;29;20392;-83
2023/07/04 02:52:32;;;;;;;15.57;5.15;;;12.40;99.90;;;;;;4815461;29;20063;-82
2023/07/04 02:54:58;;;;;;;19.65;4.78;;;12.20;99.90;;;;;;4809560;29;20082;-83
2023/07/04 02:57:24;;;;;;;16.55;5.40;;;12.30;99.90;;;;;;4807610;29;20494;-82
2023/07/04 02:59:49;;;;;;;16.42;5.15;;;12.30;99.90;;;;;;4807562;29;20054;-82
2023/07/04 03:02:15;;;;;;;14.90;4.90;;;12.30;99.90;;;;;;4805984;29;20050;-83
2023/07/04 03:04:41;;;;;;;16.17;4.78;;;12.30;99.90;;;;;;4806936;29;20068;-82
2023/07/04 03:07:07;;;;;;;13.95;4.97;;;12.50;99.90;;;;;;4806061;29;20054;-82
2023/07/04 03:09:33;;;;;;;17.60;4.72;;;13.30;99.90;;;;;;4806454;29;20059;-82
2023/07/04 03:11:59;;;;;;;17.95;5.13;;;13.30;99.90;;;;;;4806553;29;20146;-83
2023/07/04 03:14:25;;;;;;;15.73;5.50;;;12.80;99.90;;;;;;4805915;29;20092;-82
2023/07/04 03:16:51;;;;;;;16.55;5.95;;;12.20;99.90;;;;;;4806566;29;20043;-82
2023/07/04 03:19:17;;;;;;;13.32;4.97;;;12.30;99.90;;;;;;4807215;29;20104;-83
2023/07/04 03:21:43;;;;;;;17.98;5.45;;;12.90;99.90;;;;;;4806814;29;20519;-82
2023/07/04 03:24:09;;;;;;;18.73;6.32;;;12.30;99.90;;;;;;4805487;29;20423;-83
2023/07/04 03:26:35;;;;;;;14.90;5.50;;;12.60;99.90;;;;;;4805989;29;20499;-83
2023/07/04 03:29:07;;;;;;;14.25;5.60;;;12.30;99.90;;;;;;4806994;29;20175;-83
2023/07/04 03:31:45;;;;;;;15.02;5.60;;;12.60;99.90;;;;;;4805525;29;20062;-82
2023/07/04 03:34:26;;;;;;;16.95;6.22;;;12.30;99.90;;;;;;4798767;29;20070;-83
2023/07/04 03:36:51;;;;;;;17.70;6.00;;;12.30;99.90;;;;;;4805276;29;20050;-83
2023/07/04 03:39:17;;;;;;;19.45;6.22;;;13.40;99.90;;;;;;4806568;29;20072;-83
2023/07/04 03:41:43;;;;;;;18.13;6.30;;;12.30;99.90;;;;;;4805529;29;20058;-83
2023/07/04 03:44:08;;;;;;;20.20;6.35;;;12.30;99.90;;;;;;4805141;29;20082;-83
2023/07/04 03:46:34;;;;;;;16.80;6.68;;;12.40;99.90;;;;;;4805081;29;20058;-83
2023/07/04 03:49:02;;;;;;;17.58;7.15;;;12.40;99.90;;;;;;4805169;29;20426;-83
2023/07/04 03:51:28;;;;;;;16.40;6.10;;;12.40;99.90;;;;;;4804847;29;20054;-83
2023/07/04 03:53:54;;;;;;;18.35;6.45;;;12.40;99.90;;;;;;4804487;29;20054;-82
2023/07/04 03:56:20;;;;;;;19.45;5.90;;;12.40;99.90;;;;;;4804969;29;20459;-82
2023/07/04 03:58:45;;;;;;;16.85;6.70;;;13.60;99.90;;;;;;4806679;29;20059;-83
2023/07/04 04:01:11;;;;;;;16.55;6.45;;;12.50;99.90;;;;;;4805519;29;20062;-82
2023/07/04 04:03:39;;;;;;;15.68;5.93;;;12.50;99.90;;;;;;4796298;29;20609;-83
2023/07/04 04:06:12;;;;;;;17.92;5.93;;;12.50;99.90;;;;;;4786152;29;20059;-82
2023/07/04 04:08:38;;;;;;;15.32;5.68;;;12.50;99.90;;;;;;4805058;29;20490;-82
2023/07/04 04:11:22;;;;;;;13.85;5.93;;;12.50;99.90;;;;;;4806200;29;20054;-83
2023/07/04 04:14:06;;;;;;;13.68;5.80;;;13.40;99.90;;;;;;4805607;29;20375;-83
2023/07/04 04:16:32;;;;;;;19.70;5.88;;;12.60;99.90;;;;;;4805235;29;20141;-83
2023/07/04 04:18:58;;;;;;;15.38;5.88;;;12.60;99.90;;;;;;4804407;29;20046;-83
2023/07/04 04:21:24;;;;;;;18.77;5.75;;;12.80;99.90;;;;;;4804663;29;20481;-83
2023/07/04 04:23:52;;;;;;;14.40;5.72;;;12.60;99.90;;;;;;4804313;29;20312;-83
2023/07/04 04:26:22;;;;;;;13.95;5.78;;;12.60;99.90;;;;;;4804560;29;20047;-83
2023/07/04 04:28:48;;;;;;;16.35;5.68;;;12.60;99.90;;;;;;4803942;29;20047;-82
2023/07/04 04:31:15;;;;;;;16.52;5.80;;;12.70;99.90;;;;;;4804587;29;20054;-83
2023/07/04 04:33:40;;;;;;;14.63;5.70;;;12.70;99.90;;;;;;4804694;29;20059;-83
2023/07/04 04:36:06;;;;;;;15.07;5.57;;;12.70;99.90;;;;;;4804157;29;20417;-83
2023/07/04 04:38:32;;;;;;;14.05;5.70;;;12.80;99.90;;;;;;4804270;29;20059;-83
2023/07/04 04:41:05;;;;;;;17.85;5.72;;;12.80;99.90;;;;;;4804111;29;20054;-83
2023/07/04 04:43:34;;;;;;;12.80;5.45;;;12.90;99.90;;;;;;4804486;29;20051;-83
2023/07/04 04:46:03;;;;;;;15.63;5.20;;;12.90;99.90;;;;;;4804283;29;20514;-82
2023/07/04 04:48:35;;;;;;;14.35;5.22;;;13.70;99.90;;;;;;4804063;29;20059;-82
2023/07/04 04:53:44;;;;;;;13.27;5.60;;;13.00;99.90;;;;;;4909836;24;20058;-83
2023/07/04 04:56:11;;;;;;;13.80;5.05;;;13.00;99.90;;;;;;4822543;29;20047;-82
2023/07/04 04:58:43;;;;;;;12.65;4.78;;;13.00;99.90;;;;;;4839085;29;20077;-83
2023/07/04 05:01:11;;;;;;;18.73;5.88;;;13.50;99.90;;;;;;4842224;29;20050;-82
2023/07/04 05:03:38;;;;;;;13.05;5.20;;;13.00;99.90;;;;;;4839627;29;20046;-83
2023/07/04 05:06:13;;;;;;;14.68;5.15;;;13.10;99.90;;;;;;4841358;29;20480;-82
2023/07/04 05:08:43;;;;;;;13.25;5.00;;;13.80;99.90;;;;;;4840298;29;20119;-82
2023/07/04 05:11:09;;;;;;;15.63;4.60;;;14.00;99.90;;;;;;4840111;29;20049;-83
2023/07/04 05:13:36;;;;;;;12.93;4.88;;;14.00;99.90;;;;;;4840076;29;20517;-83
2023/07/04 05:16:18;;;;;;;12.85;4.72;;;13.20;99.90;;;;;;4840171;29;20050;-83
2023/07/04 05:18:44;;;;;;;12.85;4.70;;;13.20;99.90;;;;;;4841145;29;20057;-83
2023/07/04 05:21:16;;;;;;;11.60;4.00;;;14.20;99.90;;;;;;4841241;29;20050;-83
2023/07/04 05:23:43;;;;;;;11.98;4.68;;;13.30;99.90;;;;;;4839763;29;20050;-83
2023/07/04 05:26:13;;;;;;;13.02;4.45;;;13.30;99.90;;;;;;4839975;29;20061;-83
2023/07/04 05:28:42;;;;;;;11.40;4.07;;;13.30;99.90;;;;;;4841255;29;20422;-83
2023/07/04 05:31:13;;;;;;;12.52;3.90;;;13.30;99.90;;;;;;4840942;29;20057;-83
2023/07/04 05:33:39;;;;;;;9.85;3.60;;;13.40;99.90;;;;;;4832045;29;20046;-83
2023/07/04 05:36:19;;;;;;;12.50;4.47;;;13.50;99.90;;;;;;4812785;29;20046;-83
2023/07/04 05:38:53;;;;;;;10.85;3.28;;;13.40;99.90;;;;;;4820680;29;20046;-83
2023/07/04 05:41:21;;;;;;;9.35;3.08;;;13.50;99.90;;;;;;4822282;29;20055;-83
2023/07/04 05:43:47;;;;;;;10.65;3.65;;;13.50;99.90;;;;;;4823088;29;20042;-83
2023/07/04 05:46:15;;;;;;;10.10;3.03;;;13.80;99.90;;;;;;4821577;29;20042;-80
2023/07/04 05:48:41;;;;;;;11.07;3.30;;;13.80;99.90;;;;;;4821606;29;20869;-81
2023/07/04 05:51:10;;;;;;;10.27;2.92;;;13.70;99.90;;;;;;4823289;29;20051;-81
2023/07/04 05:53:37;;;;;;;9.43;3.05;;;13.70;99.90;;;;;;4821227;29;20188;-81
2023/07/04 05:56:12;;;;;;;10.48;3.08;;;14.60;99.90;;;;;;4821124;29;20062;-80
2023/07/04 05:58:43;;;;;;;10.50;2.78;;;13.80;99.90;;;;;;4822801;29;20059;-81
2023/07/04 06:01:38;;;;;;;9.25;3.10;;;13.90;99.90;;;;;;4821224;29;20058;-81
2023/07/04 06:04:06;;;;;;;11.45;3.00;;;14.00;99.90;;;;;;4821508;29;20406;-81
2023/07/04 06:06:35;;;;;;;11.80;3.30;;;14.00;99.90;;;;;;4821408;29;20487;-80
2023/07/04 06:09:07;;;;;;;10.52;2.75;;;14.10;99.90;;;;;;4822857;24;20062;-81
2023/07/04 06:11:36;;;;;;;10.52;2.90;;;14.20;99.90;;;;;;4803462;29;20219;-80
2023/07/04 06:14:23;;;;;;;11.07;3.00;;;15.00;99.90;;;;;;4802636;29;20403;-80
2023/07/04 06:17:04;;;;;;;11.82;3.20;;;14.20;99.90;;;;;;4806388;29;20192;-80
2023/07/04 06:19:36;;;;;;;12.10;3.60;;;14.20;99.90;;;;;;4806656;29;20133;-80
2023/07/04 06:22:05;;;;;;;10.32;2.70;;;14.30;99.90;;;;;;4806678;29;20054;-80
2023/07/04 06:24:31;;;;;;;11.10;2.70;;;14.40;99.90;;;;;;4806390;29;20463;-82
2023/07/04 06:27:00;;;;;;;8.30;2.30;;;14.30;99.90;;;;;;4806356;29;20141;-82
2023/07/04 06:29:25;;;;;;;10.23;2.70;;;14.40;99.90;;;;;;4800494;29;20381;-81
2023/07/04 06:32:10;;;;;;;10.90;2.50;;;14.70;99.90;;;;;;4790535;29;20084;-81
2023/07/04 06:34:56;;;;;;;12.80;3.00;;;15.30;99.90;;;;;;4806244;29;20054;-81
2023/07/04 06:37:22;;;;;;;9.15;2.63;;;14.60;99.90;;;;;;4806376;29;20074;-82
2023/07/04 06:39:54;;;;;;;8.98;2.40;;;14.90;99.90;;;;;;4806021;29;20093;-82
2023/07/04 06:42:41;;;;;;;10.50;2.55;;;14.20;99.90;;;;;;4805939;29;20046;-81
2023/07/04 06:45:06;;;;;;;10.30;2.50;;;15.60;99.90;;;;;;4806883;29;20499;-82
2023/07/04 06:47:32;;;;;;;11.70;2.60;;;14.80;99.90;;;;;;4807691;29;20096;-81
2023/07/04 06:49:58;;;;;;;9.13;2.75;;;15.00;99.90;;;;;;4805723;29;20062;-81
2023/07/04 06:52:27;;;;;;;14.00;2.70;;;15.20;99.90;;;;;;4807457;29;20043;-82
2023/07/04 06:55:10;;;;;;;7.30;2.20;;;16.00;99.90;;;;;;4806496;29;20499;-82
2023/07/04 06:57:36;;;;;;;9.18;2.30;;;15.40;99.90;;;;;;4806194;29;20594;-82
2023/07/04 07:00:02;;;;;;;10.73;2.53;;;15.60;99.90;;;;;;4805864;29;20077;-82
2023/07/04 07:02:32;;;;;;;8.68;2.47;;;15.60;99.90;;;;;;4805418;29;20051;-83
2023/07/04 07:05:26;;;;;;;6.53;1.90;;;15.70;99.90;;;;;;4805901;29;20138;-82
2023/07/04 07:07:54;;;;;;;8.98;2.10;;;15.50;99.90;;;;;;4793260;29;20061;-82
2023/07/04 07:10:26;;;;;;;9.82;2.55;;;16.60;99.90;;;;;;4805129;29;20098;-82
2023/07/04 07:12:52;;;;;;;8.45;2.22;;;15.90;99.90;;;;;;4821059;24;20177;-82
2023/07/04 07:15:38;;;;;;;7.97;2.15;;;15.90;99.90;;;;;;4824119;29;20140;-82
2023/07/04 07:18:03;;;;;;;8.10;2.20;;;15.90;99.90;;;;;;4815442;29;20058;-81
2023/07/04 07:20:29;;;;;;;9.80;2.35;;;16.60;99.90;;;;;;4804844;29;20388;-80
2023/07/04 07:22:55;;;;;;;8.40;2.38;;;15.70;99.90;;;;;;4805039;29;20046;-80
2023/07/04 07:25:20;;;;;;;8.05;2.17;;;15.80;99.90;;;;;;4805608;29;20050;-81
2023/07/04 07:27:46;;;;;;;10.05;2.22;;;15.80;99.90;;;;;;4805057;29;20051;-83
2023/07/04 07:30:12;;;;;;;11.77;2.40;;;15.80;99.90;;;;;;4809948;29;20157;-81
2023/07/04 07:32:38;;;;;;;10.02;2.67;;;15.90;99.90;;;;;;4824832;29;20051;-82
2023/07/04 07:35:03;;;;;;;9.18;2.67;;;16.30;99.90;;;;;;4823203;29;20054;-83
2023/07/04 07:37:29;;;;;;;10.68;2.20;;;16.40;99.90;;;;;;4823355;29;20046;-81
2023/07/04 07:39:55;;;;;;;10.23;2.70;;;16.60;99.90;;;;;;4822850;29;20065;-82
2023/07/04 07:42:21;;;;;;;9.93;2.28;;;17.00;99.90;;;;;;4824392;29;20078;-83
2023/07/04 07:44:49;;;;;;;9.57;2.50;;;16.90;99.90;;;;;;4822794;29;20061;-82
2023/07/04 07:47:15;;;;;;;10.57;2.40;;;16.90;99.90;;;;;;4825172;29;20042;-83
2023/07/04 07:49:40;;;;;;;8.13;2.08;;;17.20;99.90;;;;;;4823440;29;20047;-83
2023/07/04 07:52:06;;;;;;;9.23;2.60;;;17.10;99.90;;;;;;4822881;29;20078;-86
2023/07/04 07:54:35;;;;;;;8.30;2.15;;;17.00;99.90;;;;;;4823857;29;20123;-84
2023/07/04 07:57:00;;;;;;;7.53;2.05;;;17.30;99.90;;;;;;4824259;29;20191;-84
2023/07/04 07:59:26;;;;;;;8.63;2.20;;;17.20;99.90;;;;;;4827583;29;20125;-84
2023/07/04 08:01:58;;;;;;;8.75;2.28;;;17.40;99.90;;;;;;4827212;29;20426;-89
2023/07/04 08:04:25;;;;;;;10.85;2.40;;;17.50;99.90;;;;;;4824820;29;20038;-84
2023/07/04 08:06:51;;;;;;;9.25;2.53;;;17.70;99.90;;;;;;4824010;29;20090;-84
2023/07/04 08:09:31;;;;;;;8.27;2.20;;;17.80;99.90;;;;;;4822671;29;20054;-84
2023/07/04 08:12:22;;;;;;;9.93;2.53;;;17.40;99.90;;;;;;4824223;29;20133;-85
2023/07/04 08:15:07;;;;;;;8.50;2.20;;;17.20;99.90;;;;;;4822924;29;20549;-86
2023/07/04 08:17:33;;;;;;;11.23;2.50;;;17.10;99.90;;;;;;4823348;29;20077;-86
2023/07/04 08:19:58;;;;;;;9.57;2.95;;;17.10;99.90;;;;;;4823850;29;20085;-87
2023/07/04 08:22:24;;;;;;;10.55;2.42;;;17.30;99.90;;;;;;4823295;29;20046;-86
2023/07/04 08:25:06;;;;;;;8.75;2.20;;;17.80;99.90;;;;;;4824156;29;20133;-86
2023/07/04 08:27:31;;;;;;;8.32;2.13;;;17.50;99.90;;;;;;4822649;29;20054;-84
2023/07/04 08:29:57;;;;;;;10.18;2.58;;;17.80;99.90;;;;;;4822577;29;20103;-86
2023/07/04 08:32:38;;;;;;;7.65;2.03;;;18.10;99.90;;;;;;4823003;29;20407;-85
2023/07/04 08:35:05;;;;;;;9.57;2.22;;;18.00;99.90;;;;;;4823817;29;20054;-87
2023/07/04 08:37:31;;;;;;;10.75;2.28;;;18.40;99.90;;;;;;4822882;29;20050;-86
2023/07/04 08:40:06;;;;;;;9.93;2.55;;;18.70;99.90;;;;;;4823028;29;20047;-86
2023/07/04 08:42:35;;;;;;;8.57;2.30;;;18.90;99.90;;;;;;4822663;29;20091;-86
2023/07/04 08:45:16;;;;;;;13.10;2.80;;;19.20;99.90;;;;;;4822612;29;20074;-86
2023/07/04 08:47:42;;;;;;;13.90;2.63;;;19.20;99.90;;;;;;4822592;29;20563;-86
2023/07/04 08:50:29;;;;;;;10.10;2.42;;;19.40;99.90;;;;;;4824215;29;20050;-87
2023/07/04 08:53:03;;;;;;;10.45;2.60;;;19.20;99.90;;;;;;4823019;29;20080;-86
2023/07/04 08:55:48;;;;;;;14.45;2.75;;;19.20;99.90;;;;;;4822761;29;20068;-86
2023/07/04 08:58:17;;;;;;;10.10;2.85;;;19.00;99.90;;;;;;4823062;29;20053;-84
2023/07/04 09:00:44;;;;;;;11.35;2.85;;;18.80;99.90;;;;;;4822990;29;20047;-84
2023/07/04 09:03:38;;;;;;;9.77;2.60;;;18.60;99.90;;;;;;4823515;29;20065;-83
2023/07/04 09:06:09;;;;;;;;;;;18.30;99.90;;;;;;4833631;29;20082;-83
2023/07/04 09:09:01;;;;;;;13.32;2.95;;;18.10;99.90;;;;;;4829274;29;19925;-83
2023/07/04 09:11:28;;;;;;;9.50;2.50;;;18.00;99.90;;;;;;4816181;29;20059;-84
2023/07/04 09:13:59;;;;;;;10.90;2.50;;;17.80;99.90;;;;;;4823074;29;20114;-83
2023/07/04 09:16:44;;;;;;;10.80;2.40;;;17.60;99.90;;;;;;4822335;29;20085;-83
2023/07/04 09:19:12;;;;;;;11.25;2.75;;;17.60;99.90;;;;;;4821994;29;20058;-83
2023/07/04 09:21:37;;;;;;;14.43;2.90;;;17.50;99.90;;;;;;4823906;29;20046;-82
2023/07/04 09:24:15;;;;;;;10.80;2.53;;;17.40;99.90;;;;;;4821025;29;20065;-82
2023/07/04 09:26:46;;;;;;;12.63;2.92;;;17.30;99.90;;;;;;4821191;29;20050;-82
2023/07/04 09:32:45;;;;;;;13.15;3.00;;;16.60;99.90;;;;;;4822925;29;20042;-82
2023/07/04 09:35:14;;;;;;;10.25;2.83;;;17.30;99.90;;;;;;4822304;29;20095;-81
2023/07/04 09:38:00;;;;;;;12.02;2.80;;;16.10;99.90;;;;;;4822563;29;20517;-81
2023/07/04 09:40:54;;;;;;;13.18;2.67;;;16.10;99.90;;;;;;4821809;29;20058;-82
2023/07/04 09:43:32;;;;;;;15.00;2.88;;;16.10;99.90;;;;;;4823418;29;20042;-82
2023/07/04 09:46:28;;;;;;;11.07;2.85;;;16.40;99.90;;;;;;4822558;29;20052;-81
2023/07/04 09:48:55;;;;;;;9.07;2.38;;;16.60;99.90;;;;;;4806614;29;20053;-82
2023/07/04 09:51:30;;;;;;;12.15;2.78;;;16.80;99.90;;;;;;4807879;29;20042;-81
2023/07/04 09:54:14;;;;;;;10.95;2.60;;;17.00;99.90;;;;;;4808626;29;20046;-82
2023/07/04 09:56:40;;;;;;;12.05;2.63;;;17.10;99.90;;;;;;4807702;29;20082;-82
2023/07/04 09:59:16;;;;;;;10.35;2.20;;;17.10;99.90;;;;;;4806605;29;20597;-82
2023/07/04 10:01:53;;;;;;;7.53;2.20;;;17.00;99.90;;;;;;4808446;29;20130;-81
2023/07/04 10:04:35;;;;;;;9.75;2.10;;;17.10;99.90;;;;;;4808095;29;20047;-81
2023/07/04 10:07:04;;;;;;;9.98;2.50;;;17.40;99.90;;;;;;4807897;29;20075;-82
2023/07/04 10:09:30;;;;;;;11.90;2.40;;;17.90;99.90;;;;;;4807060;29;20445;-82
2023/07/04 10:12:10;;;;;;;8.25;2.45;;;18.20;99.90;;;;;;4804242;29;20055;-82
2023/07/04 10:14:44;;;;;;;9.55;2.40;;;18.70;99.90;;;;;;4808527;29;20055;-82
2023/07/04 10:17:16;;;;;;;12.38;2.55;;;18.80;99.90;;;;;;4821952;29;20051;-81
2023/07/04 10:19:45;;;;;;;10.15;2.40;;;19.20;99.90;;;;;;4824193;29;20138;-81
2023/07/04 10:22:11;;;;;;;8.60;2.42;;;19.20;99.90;;;;;;4825682;29;20175;-82
2023/07/04 10:24:36;;;;;;;11.60;2.40;;;19.30;99.90;;;;;;4824604;29;20129;-81
2023/07/04 10:27:13;;;;;;;9.35;2.78;;;19.50;99.90;;;;;;4825280;29;20127;-81
2023/07/04 10:29:44;;;;;;;10.20;2.70;;;19.40;99.90;;;;;;4824252;29;20407;-82
2023/07/04 10:32:13;;;;;;;11.50;3.33;;;19.50;99.90;;;;;;4810960;29;20411;-83
2023/07/04 10:34:40;;;;;;;10.02;2.40;;;19.80;99.90;;;;;;4806767;29;20055;-83
2023/07/04 10:37:09;;;;;;;9.77;2.65;;;19.60;99.90;;;;;;4805384;29;20506;-82
2023/07/04 10:39:38;;;;;;;11.13;2.60;;;19.20;99.90;;;;;;4812915;24;20086;-82
2023/07/04 10:42:24;;;;;;;10.50;2.38;;;18.70;99.90;;;;;;4804159;29;20135;-83
2023/07/04 10:44:53;;;;;;;10.30;2.58;;;18.50;99.90;;;;;;4806086;29;20061;-82
2023/07/04 10:47:32;;;;;;;9.50;2.70;;;18.30;99.90;;;;;;4805934;29;20055;-84
2023/07/04 10:50:35;;;;;;;13.63;3.20;;;18.10;99.90;;;;;;4799377;29;20116;-84
2023/07/04 10:53:01;;;;;;;12.73;2.50;;;18.00;99.90;;;;;;4794683;29;20070;-81
2023/07/04 10:55:38;;;;;;;12.20;2.75;;;18.00;99.90;;;;;;4792456;29;20053;-81
2023/07/04 10:58:16;;;;;;;11.13;2.80;;;18.00;99.90;;;;;;4798909;29;20122;-81
2023/07/04 11:00:49;;;;;;;11.68;2.83;;;18.10;99.90;;;;;;4795565;29;20055;-84
2023/07/04 11:03:32;;;;;;;;;;;18.10;99.90;;;;;;4795032;29;20380;-82
2023/07/04 11:06:00;;;;;;;10.15;2.55;;;18.20;99.90;;;;;;4795019;29;20000;-83
2023/07/04 11:08:33;;;;;;;9.38;2.90;;;18.10;99.90;;;;;;4794610;29;20464;-82
2023/07/04 11:11:09;;;;;;;9.73;2.78;;;18.10;99.90;;;;;;4796818;29;20101;-82
2023/07/04 11:13:48;;;;;;;10.63;2.63;;;18.10;99.90;;;;;;4796366;29;20400;-82
2023/07/04 11:16:18;;;;;;;9.65;2.78;;;18.20;99.90;;;;;;4795181;29;20043;-82
2023/07/04 11:18:52;;;;;;;12.32;2.90;;;18.10;99.90;;;;;;4793949;29;20062;-83
2023/07/04 11:21:20;;;;;;;10.05;2.55;;;17.90;99.90;;;;;;4791860;29;20115;-82
2023/07/04 11:24:11;;;;;;;9.85;2.60;;;18.00;99.90;;;;;;4793422;29;20047;-84
2023/07/04 11:26:55;;;;;;;12.30;2.95;;;17.90;99.90;;;;;;4796821;29;20044;-84
2023/07/04 11:29:22;;;;;;;11.07;3.17;;;17.80;99.90;;;;;;4794760;29;20888;-83
2023/07/04 11:32:02;;;;;;;15.10;2.97;;;17.80;99.90;;;;;;4793421;29;20047;-83
2023/07/04 11:34:56;;;;;;;13.38;3.15;;;17.70;99.90;;;;;;4791843;29;20062;-84
2023/07/04 11:37:24;;;;;;;11.13;2.70;;;17.70;99.90;;;;;;4794360;29;20050;-82
2023/07/04 11:40:10;;;;;;;12.98;2.90;;;18.10;99.90;;;;;;4788723;29;20064;-83
2023/07/04 11:42:51;;;;;;;8.57;2.72;;;18.60;99.90;;;;;;4793988;29;20135;-84
2023/07/04 11:45:21;;;;;;;11.48;3.20;;;19.00;99.90;;;;;;4790229;29;20381;-82
2023/07/04 11:48:01;;;;;;;14.10;3.75;;;18.90;99.90;;;;;;4791558;29;20043;-83
2023/07/04 11:50:40;;;;;;;14.48;2.90;;;18.80;99.90;;;;;;4791077;29;20049;-83
2023/07/04 11:53:13;;;;;;;10.82;3.00;;;18.90;99.90;;;;;;4791744;29;20112;-82
2023/07/04 11:55:42;;;;;;;10.93;2.85;;;18.50;99.90;;;;;;4790133;29;20082;-83
2023/07/04 11:58:12;;;;;;;10.38;2.65;;;18.40;99.90;;;;;;4791530;29;20043;-84
2023/07/04 12:00:41;;;;;;;11.95;2.80;;;18.20;99.90;;;;;;4794774;29;20060;-84
2023/07/04 12:03:21;;;;;;;11.60;2.60;;;18.10;99.90;;;;;;4791669;29;20055;-82
2023/07/04 12:05:53;;;;;;;11.20;2.92;;;18.30;99.90;;;;;;4793067;29;20082;-83
2023/07/04 12:08:25;;;;;;;11.77;2.85;;;18.60;99.90;;;;;;4790414;29;20050;-83
2023/07/04 12:10:57;;;;;;;10.55;2.70;;;18.80;99.90;;;;;;4792000;29;20055;-83
2023/07/04 12:13:24;;;;;;;10.65;2.75;;;18.80;99.90;;;;;;4793712;29;20039;-83
2023/07/04 12:15:53;;;;;;;9.98;2.80;;;18.80;99.90;;;;;;4794900;29;20078;-83
2023/07/04 12:18:23;;;;;;;12.32;2.65;;;18.70;99.90;;;;;;4791367;29;20051;-84
2023/07/04 12:20:50;;;;;;;9.23;2.50;;;18.40;99.90;;;;;;4788921;29;20043;-83
2023/07/04 12:23:18;;;;;;;12.38;3.13;;;18.90;99.90;;;;;;4791998;29;20092;-83
2023/07/04 12:25:47;;;;;;;11.75;2.85;;;19.40;99.90;;;;;;4788610;29;20047;-83
2023/07/04 12:28:15;;;;;;;10.18;2.70;;;19.80;99.90;;;;;;4796136;29;20043;-84
2023/07/04 12:30:47;;;;;;;10.45;2.53;;;19.90;99.90;;;;;;4791364;29;20064;-82
2023/07/04 12:33:25;;;;;;;11.63;2.90;;;20.10;99.90;;;;;;4791641;29;20045;-82
2023/07/04 12:35:59;;;;;;;12.52;2.67;;;20.40;99.90;;;;;;4790190;29;20312;-82
2023/07/04 12:38:26;;;;;;;9.98;2.78;;;20.10;99.90;;;;;;4790928;29;20575;-82
2023/07/04 12:40:53;;;;;;;12.35;3.15;;;19.60;99.90;;;;;;4793947;29;20051;-83
2023/07/04 12:43:21;;;;;;;10.88;2.40;;;19.60;99.90;;;;;;4774952;29;20055;-82
2023/07/04 12:45:47;;;;;;;11.25;2.60;;;19.30;99.90;;;;;;4791635;29;20139;-83
2023/07/04 12:48:15;;;;;;;11.75;2.55;;;19.50;99.90;;;;;;4791083;29;20156;-83
2023/07/04 12:50:53;;;;;;;12.05;2.60;;;19.30;99.90;;;;;;4792005;29;20051;-83
2023/07/04 12:53:19;;;;;;;9.00;2.92;;;19.30;98.50;;;;;;4793197;29;20043;-83
2023/07/04 12:55:46;;;;;;;9.43;2.50;;;19.50;99.90;;;;;;4786204;29;20051;-82
2023/07/04 12:58:14;;;;;;;10.07;2.53;;;19.30;98.70;;;;;;4787021;29;20066;-84
2023/07/04 13:01:02;;;;;;;10.52;2.90;;;19.20;99.90;;;;;;4792204;29;20528;-84
2023/07/04 13:03:29;;;;;;;10.02;2.70;;;19.40;99.50;;;;;;4788766;29;20444;-81
2023/07/04 13:05:59;;;;;;;14.38;3.00;;;19.40;99.90;;;;;;4789802;29;20051;-83
2023/07/04 13:11:21;;;;;;;11.93;2.72;;;19.80;99.90;;;;;;4791911;29;20062;-83